Time;durP1;ratioP1;P1;durP2;ratioP2;P2;SDS_P1;SDS_P2;PMS_P1;PMS_P2;Temp;Humidity;BMP_temperature;BMP_pressure;BME280_temperature;BME280_humidity;BME280_pressure;Samples;Min_cycle;Max_cycle;Signal;HPM_P1;HPM_P2
2022/04/14 00:01:13;;;;;;;2.53;1.08;;;;;;;;;;6206035;23;20055;-48
2022/04/14 00:03:40;;;;;;;1.95;1.20;;;;;;;;;;6205304;23;20000;-48
2022/04/14 00:06:07;;;;;;;1.77;1.02;;;;;;;;;;6206978;23;20011;-49
2022/04/14 00:08:33;;;;;;;4.00;1.65;;;;;;;;;;6206219;23;20358;-50
2022/04/14 00:11:00;;;;;;;2.28;1.10;;;;;;;;;;6206066;23;20135;-50
2022/04/14 00:13:26;;;;;;;2.55;1.40;;;;;;;;;;6205209;23;20015;-48
2022/04/14 00:15:52;;;;;;;2.40;1.27;;;;;;;;;;6205825;23;20011;-49
2022/04/14 00:18:18;;;;;;;2.22;0.93;;;;;;;;;;6205176;23;20004;-52
2022/04/14 00:20:45;;;;;;;0.90;0.90;;;;;;;;;;6206120;23;20004;-52
2022/04/14 00:23:11;;;;;;;1.70;1.20;;;;;;;;;;6205097;23;20001;-51
2022/04/14 00:25:37;;;;;;;1.80;1.23;;;;;;;;;;6206670;23;20004;-50
2022/04/14 00:28:03;;;;;;;2.67;1.30;;;;;;;;;;6206297;23;20078;-53
2022/04/14 00:30:29;;;;;;;2.83;1.25;;;;;;;;;;6205596;23;20434;-53
2022/04/14 00:32:55;;;;;;;1.38;0.80;;;;;;;;;;6178989;23;20489;-52
2022/04/14 00:35:21;;;;;;;2.05;1.20;;;;;;;;;;6178778;23;20350;-50
2022/04/14 00:37:47;;;;;;;1.90;1.20;;;;;;;;;;6205565;23;20015;-50
2022/04/14 00:40:13;;;;;;;3.40;1.20;;;;;;;;;;6178871;23;20001;-50
2022/04/14 00:42:39;;;;;;;1.70;1.35;;;;;;;;;;6179024;23;20001;-49
2022/04/14 00:45:06;;;;;;;2.83;1.20;;;;;;;;;;6206779;23;20047;-49
2022/04/14 00:47:33;;;;;;;1.42;0.98;;;;;;;;;;6204901;23;20012;-52
2022/04/14 00:49:59;;;;;;;5.40;1.77;;;;;;;;;;6205774;23;20072;-49
2022/04/14 00:52:26;;;;;;;1.33;1.13;;;;;;;;;;6205269;23;20052;-53
2022/04/14 00:54:52;;;;;;;1.25;1.13;;;;;;;;;;6205981;23;20012;-52
2022/04/14 00:57:18;;;;;;;2.15;1.27;;;;;;;;;;6205378;23;20004;-50
2022/04/14 00:59:45;;;;;;;3.53;1.50;;;;;;;;;;6205712;23;20004;-52
2022/04/14 01:02:12;;;;;;;1.63;1.05;;;;;;;;;;6205167;23;20004;-50
2022/04/14 01:04:38;;;;;;;2.20;1.08;;;;;;;;;;6206238;23;20012;-50
2022/04/14 01:07:07;;;;;;;1.80;0.98;;;;;;;;;;6205597;23;20005;-50
2022/04/14 01:09:34;;;;;;;1.50;1.00;;;;;;;;;;6205322;23;20009;-52
2022/04/14 01:12:00;;;;;;;2.67;1.10;;;;;;;;;;6205191;23;20089;-51
2022/04/14 01:14:26;;;;;;;1.75;1.17;;;;;;;;;;6204443;23;20004;-52
2022/04/14 01:16:53;;;;;;;1.42;0.90;;;;;;;;;;6204750;23;20015;-53
2022/04/14 01:19:19;;;;;;;1.48;0.85;;;;;;;;;;6204885;23;20105;-51
2022/04/14 01:21:46;;;;;;;3.22;1.13;;;;;;;;;;6205419;23;20244;-51
2022/04/14 01:24:14;;;;;;;1.85;0.93;;;;;;;;;;6205135;23;20000;-49
2022/04/14 01:26:40;;;;;;;1.55;0.95;;;;;;;;;;6205520;23;20008;-52
2022/04/14 01:29:06;;;;;;;5.15;0.93;;;;;;;;;;6206027;23;20434;-52
2022/04/14 01:31:32;;;;;;;1.17;1.00;;;;;;;;;;6204545;23;20350;-49
2022/04/14 01:33:58;;;;;;;1.92;1.30;;;;;;;;;;6205142;23;20005;-50
2022/04/14 01:36:24;;;;;;;2.85;0.93;;;;;;;;;;6205247;23;20001;-50
2022/04/14 01:38:51;;;;;;;2.25;1.45;;;;;;;;;;6204775;23;20478;-50
2022/04/14 01:41:17;;;;;;;1.73;1.17;;;;;;;;;;6178083;23;20011;-48
2022/04/14 01:43:43;;;;;;;2.55;1.30;;;;;;;;;;6205100;23;20075;-51
2022/04/14 01:46:09;;;;;;;1.65;1.20;;;;;;;;;;6204841;23;20009;-47
2022/04/14 01:48:38;;;;;;;2.28;1.00;;;;;;;;;;6206231;23;20008;-51
2022/04/14 01:51:05;;;;;;;1.67;1.10;;;;;;;;;;6204635;23;20049;-48
2022/04/14 01:53:31;;;;;;;1.58;1.10;;;;;;;;;;6178041;23;20015;-52
2022/04/14 01:55:58;;;;;;;1.58;0.98;;;;;;;;;;6205130;23;20004;-51
2022/04/14 01:58:24;;;;;;;1.23;0.90;;;;;;;;;;6205012;23;20354;-49
2022/04/14 02:00:50;;;;;;;1.92;1.00;;;;;;;;;;6204742;23;19997;-49
2022/04/14 02:03:16;;;;;;;1.75;1.05;;;;;;;;;;6204754;23;20007;-48
2022/04/14 02:05:43;;;;;;;1.42;0.82;;;;;;;;;;6205131;23;20004;-49
2022/04/14 02:08:09;;;;;;;1.20;0.95;;;;;;;;;;6205105;23;20005;-53
2022/04/14 02:10:36;;;;;;;1.77;0.77;;;;;;;;;;6205981;23;19997;-50
2022/04/14 02:13:03;;;;;;;2.25;1.10;;;;;;;;;;6205029;23;20005;-48
2022/04/14 02:15:30;;;;;;;1.90;1.20;;;;;;;;;;6204528;23;20094;-50
2022/04/14 02:17:57;;;;;;;1.05;0.85;;;;;;;;;;6204979;23;20108;-50
2022/04/14 02:20:23;;;;;;;1.00;0.90;;;;;;;;;;6204756;23;20458;-51
2022/04/14 02:22:49;;;;;;;1.13;0.88;;;;;;;;;;6204882;23;20012;-49
2022/04/14 02:25:15;;;;;;;2.13;1.13;;;;;;;;;;6204432;23;20001;-53
2022/04/14 02:27:41;;;;;;;1.48;1.00;;;;;;;;;;6206710;23;20004;-50
2022/04/14 02:30:08;;;;;;;2.35;1.10;;;;;;;;;;6207404;23;20403;-51
2022/04/14 02:32:34;;;;;;;1.48;0.98;;;;;;;;;;6207779;23;20008;-53
2022/04/14 02:35:00;;;;;;;1.88;1.20;;;;;;;;;;6207485;23;20039;-48
2022/04/14 02:37:26;;;;;;;1.92;1.00;;;;;;;;;;6179902;23;20050;-51
2022/04/14 02:39:53;;;;;;;2.30;1.00;;;;;;;;;;6179950;23;20001;-52
2022/04/14 02:42:19;;;;;;;1.05;0.88;;;;;;;;;;6206360;23;20000;-52
2022/04/14 02:44:45;;;;;;;1.88;1.00;;;;;;;;;;6206596;23;20050;-51
2022/04/14 02:47:11;;;;;;;2.67;1.17;;;;;;;;;;6206528;23;20079;-52
2022/04/14 02:49:37;;;;;;;2.25;1.20;;;;;;;;;;6207625;23;20011;-49
2022/04/14 02:52:03;;;;;;;2.55;1.05;;;;;;;;;;6206577;23;20011;-52
2022/04/14 02:54:35;;;;;;;2.05;1.08;;;;;;;;;;6207045;23;20016;-52
2022/04/14 02:57:02;;;;;;;1.52;1.02;;;;;;;;;;6206744;23;20305;-51
2022/04/14 02:59:28;;;;;;;1.00;0.80;;;;;;;;;;6206910;23;20036;-48
2022/04/14 03:01:55;;;;;;;1.52;0.98;;;;;;;;;;6206897;23;20008;-50
2022/04/14 03:04:21;;;;;;;2.05;0.80;;;;;;;;;;6206379;23;20012;-52
2022/04/14 03:06:47;;;;;;;1.98;1.08;;;;;;;;;;6206755;23;20076;-51
2022/04/14 03:09:13;;;;;;;1.33;0.90;;;;;;;;;;6206355;23;20001;-51
2022/04/14 03:11:39;;;;;;;0.90;0.80;;;;;;;;;;6206532;23;20043;-50
2022/04/14 03:14:06;;;;;;;1.10;0.88;;;;;;;;;;6206806;23;20458;-51
2022/04/14 03:16:32;;;;;;;3.15;0.98;;;;;;;;;;6205880;23;20005;-51
2022/04/14 03:18:58;;;;;;;2.80;0.90;;;;;;;;;;6206872;23;20027;-52
2022/04/14 03:21:24;;;;;;;2.47;1.02;;;;;;;;;;6206377;23;20005;-51
2022/04/14 03:23:50;;;;;;;1.95;1.17;;;;;;;;;;6206513;23;20071;-52
2022/04/14 03:26:17;;;;;;;2.35;0.93;;;;;;;;;;6205798;23;20035;-52
2022/04/14 03:28:43;;;;;;;1.25;1.00;;;;;;;;;;6179537;23;20481;-50
2022/04/14 03:31:10;;;;;;;1.48;0.95;;;;;;;;;;6206651;23;20066;-47
2022/04/14 03:33:36;;;;;;;1.30;1.08;;;;;;;;;;6206671;23;20008;-49
2022/04/14 03:36:03;;;;;;;1.35;0.98;;;;;;;;;;6206314;23;20008;-51
2022/04/14 03:38:30;;;;;;;1.35;1.25;;;;;;;;;;6205699;23;20011;-50
2022/04/14 03:40:59;;;;;;;1.65;1.00;;;;;;;;;;6206070;23;20341;-50
2022/04/14 03:43:26;;;;;;;1.58;1.20;;;;;;;;;;6206033;23;20005;-53
2022/04/14 03:45:52;;;;;;;2.45;1.10;;;;;;;;;;6206027;23;20434;-49
2022/04/14 03:48:19;;;;;;;1.67;0.90;;;;;;;;;;6206229;23;20054;-51
2022/04/14 03:50:46;;;;;;;1.48;0.80;;;;;;;;;;6206091;23;20001;-50
2022/04/14 03:53:12;;;;;;;1.38;1.05;;;;;;;;;;6206413;23;20374;-48
2022/04/14 03:55:39;;;;;;;2.45;1.02;;;;;;;;;;6206407;23;20473;-49
2022/04/14 03:58:05;;;;;;;2.47;0.90;;;;;;;;;;6207036;23;20001;-50
2022/04/14 04:00:32;;;;;;;1.40;1.05;;;;;;;;;;6205503;23;20345;-52
2022/04/14 04:02:58;;;;;;;2.85;1.05;;;;;;;;;;6206254;23;20007;-51
2022/04/14 04:05:24;;;;;;;2.72;1.08;;;;;;;;;;6205775;23;20076;-51
2022/04/14 04:07:51;;;;;;;1.50;1.20;;;;;;;;;;6205897;23;20393;-53
2022/04/14 04:10:17;;;;;;;1.58;1.13;;;;;;;;;;6206089;23;20005;-50
2022/04/14 04:12:44;;;;;;;1.10;1.00;;;;;;;;;;6205542;23;20405;-51
2022/04/14 04:15:11;;;;;;;2.13;1.20;;;;;;;;;;6205892;23;20015;-50
2022/04/14 04:17:38;;;;;;;1.80;1.20;;;;;;;;;;6206649;23;20001;-52
2022/04/14 04:20:05;;;;;;;1.48;0.88;;;;;;;;;;6206682;23;20354;-51
2022/04/14 04:22:35;;;;;;;1.25;1.00;;;;;;;;;;6205533;23;20012;-51
2022/04/14 04:25:01;;;;;;;1.23;1.00;;;;;;;;;;6206271;23;20008;-51
2022/04/14 04:27:27;;;;;;;2.42;1.35;;;;;;;;;;6205568;23;20342;-49
2022/04/14 04:29:53;;;;;;;3.30;1.40;;;;;;;;;;6205922;23;20000;-52
2022/04/14 04:32:19;;;;;;;1.92;1.40;;;;;;;;;;6205760;23;20016;-50
2022/04/14 04:34:45;;;;;;;2.17;1.20;;;;;;;;;;6205771;23;20005;-50
2022/04/14 04:37:11;;;;;;;1.98;1.27;;;;;;;;;;6205622;23;20407;-51
2022/04/14 04:39:37;;;;;;;1.95;1.25;;;;;;;;;;6205986;23;20067;-50
2022/04/14 04:42:03;;;;;;;2.08;1.05;;;;;;;;;;6206006;23;20434;-52
2022/04/14 04:44:29;;;;;;;2.35;1.30;;;;;;;;;;6178903;23;20005;-52
2022/04/14 04:46:55;;;;;;;1.50;1.02;;;;;;;;;;6205825;23;20059;-48
2022/04/14 04:49:21;;;;;;;1.98;1.30;;;;;;;;;;6205618;23;20068;-51
2022/04/14 04:51:48;;;;;;;3.05;1.38;;;;;;;;;;6204769;23;20004;-51
2022/04/14 04:54:14;;;;;;;1.60;0.98;;;;;;;;;;6205292;23;20040;-51
2022/04/14 04:56:40;;;;;;;1.10;0.90;;;;;;;;;;6205435;23;20074;-50
2022/04/14 04:59:08;;;;;;;2.72;1.00;;;;;;;;;;6205717;23;20027;-49
2022/04/14 05:01:34;;;;;;;1.67;1.10;;;;;;;;;;6205638;23;20514;-48
2022/04/14 05:04:00;;;;;;;1.98;1.38;;;;;;;;;;6205172;23;20008;-49
2022/04/14 05:06:26;;;;;;;3.50;1.55;;;;;;;;;;6204994;23;20446;-51
2022/04/14 05:08:52;;;;;;;2.15;1.38;;;;;;;;;;6178870;23;20450;-56
2022/04/14 05:11:18;;;;;;;2.53;1.60;;;;;;;;;;6204509;23;20012;-57
2022/04/14 05:13:44;;;;;;;1.60;1.17;;;;;;;;;;6205515;23;20001;-57
2022/04/14 05:16:11;;;;;;;2.30;1.60;;;;;;;;;;6205462;23;20008;-57
2022/04/14 05:18:37;;;;;;;1.55;1.40;;;;;;;;;;6206616;23;19997;-57
2022/04/14 05:21:03;;;;;;;3.63;1.25;;;;;;;;;;6205867;23;20027;-57
2022/04/14 05:23:29;;;;;;;2.28;1.30;;;;;;;;;;6205435;23;20005;-57
2022/04/14 05:25:56;;;;;;;1.33;1.10;;;;;;;;;;6206094;23;20004;-57
2022/04/14 05:28:22;;;;;;;1.25;0.98;;;;;;;;;;6205517;23;20450;-57
2022/04/14 05:30:48;;;;;;;1.52;1.08;;;;;;;;;;6206358;23;19996;-57
2022/04/14 05:33:15;;;;;;;2.05;1.10;;;;;;;;;;6205657;23;20000;-57
2022/04/14 05:35:43;;;;;;;2.33;1.17;;;;;;;;;;6205887;23;20688;-57
2022/04/14 05:38:09;;;;;;;1.85;1.25;;;;;;;;;;6205960;23;20461;-57
2022/04/14 05:40:41;;;;;;;1.88;1.40;;;;;;;;;;6206769;23;20031;-57
2022/04/14 05:43:07;;;;;;;1.55;1.00;;;;;;;;;;6206647;23;20047;-57
2022/04/14 05:45:34;;;;;;;2.00;1.50;;;;;;;;;;6206098;23;20011;-57
2022/04/14 05:48:00;;;;;;;1.83;1.30;;;;;;;;;;6206030;23;20008;-57
2022/04/14 05:50:27;;;;;;;1.42;1.23;;;;;;;;;;6206606;23;20009;-57
2022/04/14 05:52:55;;;;;;;1.38;1.10;;;;;;;;;;6206648;23;20552;-57
2022/04/14 05:55:21;;;;;;;2.10;1.10;;;;;;;;;;6206438;23;20013;-57
2022/04/14 05:57:47;;;;;;;2.53;1.20;;;;;;;;;;6206652;23;20338;-57
2022/04/14 06:00:14;;;;;;;2.95;1.38;;;;;;;;;;6205244;23;20108;-57
2022/04/14 06:02:41;;;;;;;2.13;1.50;;;;;;;;;;6205373;23;19996;-57
2022/04/14 06:05:07;;;;;;;1.73;1.35;;;;;;;;;;6205486;23;20016;-57
2022/04/14 06:07:33;;;;;;;1.10;1.00;;;;;;;;;;6205481;23;20011;-57
2022/04/14 06:09:59;;;;;;;1.95;1.50;;;;;;;;;;6204519;23;20004;-56
2022/04/14 06:12:26;;;;;;;3.55;1.45;;;;;;;;;;6205171;23;20395;-57
2022/04/14 06:14:52;;;;;;;1.80;1.42;;;;;;;;;;6206239;23;20009;-56
2022/04/14 06:17:18;;;;;;;2.22;1.60;;;;;;;;;;6205934;23;20005;-57
2022/04/14 06:19:44;;;;;;;1.92;1.50;;;;;;;;;;6205580;23;20051;-57
2022/04/14 06:22:10;;;;;;;2.65;1.60;;;;;;;;;;6203831;23;20055;-57
2022/04/14 06:24:36;;;;;;;2.38;1.60;;;;;;;;;;6206225;23;20601;-57
2022/04/14 06:27:03;;;;;;;2.53;1.70;;;;;;;;;;6206708;23;20366;-57
2022/04/14 06:29:29;;;;;;;2.67;1.90;;;;;;;;;;6206283;23;20008;-57
2022/04/14 06:31:55;;;;;;;3.03;1.58;;;;;;;;;;6206395;23;20008;-57
2022/04/14 06:34:22;;;;;;;4.28;1.90;;;;;;;;;;6204823;23;20024;-57
2022/04/14 06:36:48;;;;;;;3.50;1.60;;;;;;;;;;6205021;23;20026;-57
2022/04/14 06:39:14;;;;;;;1.90;1.60;;;;;;;;;;6204992;23;20395;-57
2022/04/14 06:41:41;;;;;;;2.85;1.60;;;;;;;;;;6205229;23;20374;-57
2022/04/14 06:44:07;;;;;;;2.67;1.60;;;;;;;;;;6205909;23;20327;-57
2022/04/14 06:46:33;;;;;;;2.30;1.50;;;;;;;;;;6204926;23;20009;-57
2022/04/14 06:48:59;;;;;;;3.20;1.58;;;;;;;;;;6205124;23;20084;-57
2022/04/14 06:51:26;;;;;;;2.25;1.73;;;;;;;;;;6204698;23;20036;-57
2022/04/14 06:53:52;;;;;;;2.50;1.77;;;;;;;;;;6204832;23;20080;-57
2022/04/14 06:56:18;;;;;;;4.18;1.80;;;;;;;;;;6204996;23;20007;-57
2022/04/14 06:58:44;;;;;;;2.22;1.90;;;;;;;;;;6204652;23;20001;-57
2022/04/14 07:01:10;;;;;;;2.10;1.83;;;;;;;;;;6204887;23;20008;-58
2022/04/14 07:03:36;;;;;;;2.47;1.73;;;;;;;;;;6178661;23;20004;-57
2022/04/14 07:06:02;;;;;;;3.90;1.85;;;;;;;;;;6204971;23;20230;-57
2022/04/14 07:08:28;;;;;;;2.15;1.80;;;;;;;;;;6204845;23;20063;-57
2022/04/14 07:10:55;;;;;;;2.22;1.77;;;;;;;;;;6205053;23;20024;-57
2022/04/14 07:13:22;;;;;;;1.85;1.52;;;;;;;;;;6205457;23;20504;-57
2022/04/14 07:15:48;;;;;;;3.35;1.95;;;;;;;;;;6206603;23;20001;-57
2022/04/14 07:18:14;;;;;;;4.75;1.80;;;;;;;;;;6204368;23;20397;-57
2022/04/14 07:20:40;;;;;;;1.90;1.70;;;;;;;;;;6207478;23;20579;-57
2022/04/14 07:23:07;;;;;;;2.97;1.52;;;;;;;;;;6206041;23;20004;-57
2022/04/14 07:25:34;;;;;;;1.85;1.33;;;;;;;;;;6206866;23;20008;-57
2022/04/14 07:28:01;;;;;;;2.65;1.73;;;;;;;;;;6206477;23;20052;-57
2022/04/14 07:30:28;;;;;;;2.95;1.60;;;;;;;;;;6206108;23;20083;-57
2022/04/14 07:32:54;;;;;;;2.33;1.50;;;;;;;;;;6206284;23;20004;-57
2022/04/14 07:35:22;;;;;;;2.35;1.63;;;;;;;;;;6206512;23;20055;-57
2022/04/14 07:37:48;;;;;;;2.67;1.50;;;;;;;;;;6206354;23;20294;-57
2022/04/14 07:40:15;;;;;;;3.47;2.08;;;;;;;;;;6206970;23;20039;-57
2022/04/14 07:42:42;;;;;;;3.28;1.80;;;;;;;;;;6207057;23;20367;-57
2022/04/14 07:45:09;;;;;;;1.65;1.45;;;;;;;;;;6207237;23;19996;-57
2022/04/14 07:47:35;;;;;;;2.55;1.55;;;;;;;;;;6206279;23;20013;-57
2022/04/14 07:50:01;;;;;;;2.20;1.77;;;;;;;;;;6206335;23;20009;-57
2022/04/14 07:52:27;;;;;;;2.10;1.35;;;;;;;;;;6206271;23;20005;-57
2022/04/14 07:54:54;;;;;;;1.70;1.50;;;;;;;;;;6205897;23;20407;-56
2022/04/14 07:57:21;;;;;;;2.30;1.63;;;;;;;;;;6205984;23;20001;-57
2022/04/14 07:59:47;;;;;;;1.58;1.45;;;;;;;;;;6206407;23;20454;-57
2022/04/14 08:02:13;;;;;;;1.85;1.45;;;;;;;;;;6206232;23;20076;-58
2022/04/14 08:04:40;;;;;;;1.55;1.40;;;;;;;;;;6206749;23;20009;-57
2022/04/14 08:07:07;;;;;;;2.17;1.50;;;;;;;;;;6206428;23;20020;-57
2022/04/14 08:09:33;;;;;;;1.95;1.20;;;;;;;;;;6206087;23;20071;-57
2022/04/14 08:11:59;;;;;;;1.77;1.58;;;;;;;;;;6206115;23;20008;-57
2022/04/14 08:14:26;;;;;;;1.30;1.20;;;;;;;;;;6205849;23;20004;-57
2022/04/14 08:16:54;;;;;;;1.48;1.30;;;;;;;;;;6205543;23;20004;-57
2022/04/14 08:19:20;;;;;;;2.88;1.30;;;;;;;;;;6205961;23;20028;-57
2022/04/14 08:21:46;;;;;;;1.45;1.35;;;;;;;;;;6206013;23;20517;-57
2022/04/14 08:24:13;;;;;;;1.63;1.17;;;;;;;;;;6205422;23;20461;-57
2022/04/14 08:26:40;;;;;;;2.05;1.40;;;;;;;;;;6206646;23;20004;-56
2022/04/14 08:29:06;;;;;;;2.00;1.23;;;;;;;;;;6206542;23;20020;-57
2022/04/14 08:31:32;;;;;;;1.48;1.17;;;;;;;;;;6205607;23;20011;-57
2022/04/14 08:33:58;;;;;;;1.95;1.30;;;;;;;;;;6205893;23;20004;-57
2022/04/14 08:36:25;;;;;;;1.23;1.10;;;;;;;;;;6205466;23;20007;-57
2022/04/14 08:38:53;;;;;;;1.40;1.13;;;;;;;;;;6205990;23;20425;-57
2022/04/14 08:41:21;;;;;;;1.65;1.10;;;;;;;;;;6205554;23;20007;-57
2022/04/14 08:43:56;;;;;;;1.33;1.15;;;;;;;;;;6205708;23;20387;-57
2022/04/14 08:46:22;;;;;;;1.85;1.10;;;;;;;;;;6205903;23;20009;-57
2022/04/14 08:48:52;;;;;;;1.23;1.13;;;;;;;;;;6205825;23;20404;-57
2022/04/14 08:51:20;;;;;;;1.10;1.00;;;;;;;;;;6205393;23;20058;-57
2022/04/14 08:53:47;;;;;;;1.20;1.05;;;;;;;;;;6205409;23;20032;-57
2022/04/14 08:56:14;;;;;;;1.42;1.00;;;;;;;;;;6205304;23;20385;-57
2022/04/14 08:58:43;;;;;;;1.55;1.40;;;;;;;;;;6206298;23;20074;-57
2022/04/14 09:01:10;;;;;;;1.83;1.58;;;;;;;;;;6206066;23;20004;-57
2022/04/14 09:03:37;;;;;;;3.33;1.45;;;;;;;;;;6206380;23;20001;-57
2022/04/14 09:06:04;;;;;;;1.25;0.90;;;;;;;;;;6178767;23;20335;-57
2022/04/14 09:08:30;;;;;;;1.45;1.20;;;;;;;;;;6205415;23;20054;-57
2022/04/14 09:10:57;;;;;;;3.65;1.92;;;;;;;;;;6178812;23;20071;-57
2022/04/14 09:13:24;;;;;;;2.00;1.30;;;;;;;;;;6205012;23;20008;-57
2022/04/14 09:15:51;;;;;;;1.58;1.17;;;;;;;;;;6203930;23;20004;-57
2022/04/14 09:18:17;;;;;;;4.28;1.17;;;;;;;;;;6205485;23;20083;-57
2022/04/14 09:20:48;;;;;;;1.25;1.15;;;;;;;;;;6204717;23;20333;-57
2022/04/14 09:23:21;;;;;;;2.30;1.55;;;;;;;;;;6204917;23;20000;-57
2022/04/14 09:25:51;;;;;;;1.07;0.97;;;;;;;;;;6205891;23;20497;-57
2022/04/14 09:28:19;;;;;;;1.33;1.20;;;;;;;;;;6207093;23;20008;-57
2022/04/14 09:31:01;;;;;;;2.05;0.90;;;;;;;;;;6207042;23;20391;-57
2022/04/14 09:33:28;;;;;;;1.38;1.00;;;;;;;;;;6204810;23;20430;-58
2022/04/14 09:36:13;;;;;;;1.25;1.00;;;;;;;;;;6206759;23;20032;-57
2022/04/14 09:39:08;;;;;;;1.00;0.90;;;;;;;;;;6207200;23;20000;-57
2022/04/14 09:41:38;;;;;;;1.00;0.80;;;;;;;;;;6175104;23;20533;-57
2022/04/14 09:44:06;;;;;;;0.73;0.73;;;;;;;;;;6206630;23;20001;-57
2022/04/14 09:46:32;;;;;;;0.93;0.60;;;;;;;;;;6206653;23;20011;-57
2022/04/14 09:49:17;;;;;;;0.80;0.75;;;;;;;;;;6205105;23;20020;-57
2022/04/14 09:51:44;;;;;;;0.90;0.70;;;;;;;;;;6205265;23;20008;-57
2022/04/14 09:54:13;;;;;;;1.50;0.82;;;;;;;;;;6205262;23;20009;-57
2022/04/14 09:56:42;;;;;;;3.35;1.00;;;;;;;;;;6204684;23;20063;-57
2022/04/14 09:59:09;;;;;;;2.30;1.40;;;;;;;;;;6205087;23;20011;-57
2022/04/14 10:01:35;;;;;;;2.10;0.98;;;;;;;;;;6205359;23;20001;-57
2022/04/14 10:04:02;;;;;;;2.65;1.33;;;;;;;;;;6204923;23;20079;-57
2022/04/14 10:06:29;;;;;;;1.42;1.20;;;;;;;;;;6205069;23;20008;-57
2022/04/14 10:08:56;;;;;;;1.67;0.85;;;;;;;;;;6205407;23;20079;-58
2022/04/14 10:11:36;;;;;;;1.33;0.95;;;;;;;;;;6205861;23;20001;-57
2022/04/14 10:14:23;;;;;;;1.50;0.70;;;;;;;;;;6205135;23;20059;-57
2022/04/14 10:16:49;;;;;;;0.88;0.85;;;;;;;;;;6205439;23;20573;-57
2022/04/14 10:19:15;;;;;;;1.13;0.90;;;;;;;;;;6204834;23;20465;-57
2022/04/14 10:21:44;;;;;;;1.30;0.50;;;;;;;;;;6205432;23;20047;-58
2022/04/14 10:24:11;;;;;;;1.48;0.68;;;;;;;;;;6205171;23;20008;-57
2022/04/14 10:26:38;;;;;;;1.50;0.88;;;;;;;;;;6204897;23;20055;-57
2022/04/14 10:29:06;;;;;;;1.27;0.70;;;;;;;;;;6205208;23;20465;-57
2022/04/14 10:31:36;;;;;;;0.57;0.57;;;;;;;;;;6178072;23;20015;-57
2022/04/14 10:34:04;;;;;;;2.30;0.98;;;;;;;;;;6205159;23;20083;-57
2022/04/14 10:36:41;;;;;;;0.70;0.70;;;;;;;;;;6204867;23;20005;-57
2022/04/14 10:39:10;;;;;;;2.38;0.73;;;;;;;;;;6205165;23;20020;-57
2022/04/14 10:41:39;;;;;;;1.58;0.70;;;;;;;;;;6204642;23;20005;-57
2022/04/14 10:44:06;;;;;;;0.50;0.50;;;;;;;;;;6205052;23;19996;-57
2022/04/14 10:46:33;;;;;;;1.92;0.70;;;;;;;;;;6205300;23;20335;-57
2022/04/14 10:49:19;;;;;;;0.93;0.63;;;;;;;;;;6207287;23;20012;-57
2022/04/14 10:51:45;;;;;;;0.80;0.60;;;;;;;;;;6181598;23;20071;-57
2022/04/14 10:54:12;;;;;;;0.85;0.63;;;;;;;;;;6206164;23;20005;-57
2022/04/14 10:56:40;;;;;;;0.47;0.35;;;;;;;;;;6206512;23;20004;-57
2022/04/14 10:59:11;;;;;;;1.50;0.70;;;;;;;;;;6207223;23;20338;-57
2022/04/14 11:01:57;;;;;;;0.98;0.70;;;;;;;;;;6206858;23;20001;-57
2022/04/14 11:04:27;;;;;;;1.65;0.80;;;;;;;;;;6206572;23;20013;-57
2022/04/14 11:06:59;;;;;;;1.40;0.90;;;;;;;;;;6206813;23;20012;-58
2022/04/14 11:09:42;;;;;;;1.00;0.57;;;;;;;;;;6206943;23;20023;-58
2022/04/14 11:12:19;;;;;;;2.03;0.70;;;;;;;;;;6206591;23;20501;-57
2022/04/14 11:14:47;;;;;;;1.15;0.60;;;;;;;;;;6205356;23;20000;-57
2022/04/14 11:17:42;;;;;;;1.55;0.60;;;;;;;;;;6207059;23;20055;-57
2022/04/14 11:20:20;;;;;;;2.08;0.80;;;;;;;;;;6205712;23;20028;-57
2022/04/14 11:23:06;;;;;;;1.33;0.80;;;;;;;;;;6205950;23;20001;-57
2022/04/14 11:25:41;;;;;;;2.33;0.82;;;;;;;;;;6179956;23;20004;-57
2022/04/14 11:28:17;;;;;;;0.60;0.60;;;;;;;;;;6208634;23;20011;-57
2022/04/14 11:30:44;;;;;;;0.40;0.40;;;;;;;;;;6207798;23;20618;-57
2022/04/14 11:33:33;;;;;;;0.85;0.50;;;;;;;;;;6208316;23;20015;-57
2022/04/14 11:36:22;;;;;;;0.95;0.68;;;;;;;;;;6188601;23;20084;-57
2022/04/14 11:38:55;;;;;;;1.95;1.20;;;;;;;;;;6208259;23;20024;-57
2022/04/14 11:41:33;;;;;;;2.55;0.80;;;;;;;;;;6207520;23;20353;-57
2022/04/14 11:44:03;;;;;;;0.95;0.80;;;;;;;;;;6208368;23;20031;-58
2022/04/14 11:46:30;;;;;;;2.97;0.90;;;;;;;;;;6207995;23;20011;-57
2022/04/14 11:48:57;;;;;;;1.90;0.88;;;;;;;;;;6208409;23;20024;-57
2022/04/14 11:51:23;;;;;;;1.63;0.73;;;;;;;;;;6207582;23;20005;-57
2022/04/14 11:53:53;;;;;;;0.95;0.70;;;;;;;;;;6181491;23;20013;-57
2022/04/14 11:56:19;;;;;;;0.80;0.70;;;;;;;;;;6207227;23;20004;-57
2022/04/14 11:58:46;;;;;;;1.60;0.70;;;;;;;;;;6207837;23;20004;-57
2022/04/14 12:01:13;;;;;;;2.10;0.70;;;;;;;;;;6181146;23;20008;-57
2022/04/14 12:03:40;;;;;;;1.20;0.70;;;;;;;;;;6180782;23;20013;-58
2022/04/14 12:06:08;;;;;;;1.58;0.70;;;;;;;;;;6208723;23;20047;-57
2022/04/14 12:08:34;;;;;;;0.70;0.60;;;;;;;;;;6208238;23;20837;-57
2022/04/14 12:11:03;;;;;;;1.98;0.90;;;;;;;;;;6207204;23;20007;-58
2022/04/14 12:13:33;;;;;;;2.55;0.80;;;;;;;;;;6206853;23;20027;-57
2022/04/14 12:16:00;;;;;;;1.00;0.80;;;;;;;;;;6207328;23;20011;-58
2022/04/14 12:18:26;;;;;;;0.50;0.50;;;;;;;;;;6207053;23;20005;-57
2022/04/14 12:20:52;;;;;;;0.73;0.65;;;;;;;;;;6207866;23;20462;-57
2022/04/14 12:23:18;;;;;;;1.13;0.65;;;;;;;;;;6207451;23;19996;-57
2022/04/14 12:25:45;;;;;;;1.35;0.70;;;;;;;;;;6207592;23;20515;-57
2022/04/14 12:28:11;;;;;;;1.17;0.60;;;;;;;;;;6206734;23;20609;-58
2022/04/14 12:30:42;;;;;;;1.13;0.60;;;;;;;;;;6208132;23;20005;-57
2022/04/14 12:33:08;;;;;;;1.30;0.50;;;;;;;;;;6208351;23;20026;-58
2022/04/14 12:35:39;;;;;;;1.45;0.80;;;;;;;;;;6208521;23;20063;-57
2022/04/14 12:38:29;;;;;;;0.57;0.57;;;;;;;;;;6207990;23;20004;-57
2022/04/14 12:40:55;;;;;;;0.73;0.45;;;;;;;;;;6207306;23;20000;-57
2022/04/14 12:43:22;;;;;;;1.67;0.85;;;;;;;;;;6206601;23;20379;-57
2022/04/14 12:45:48;;;;;;;0.98;0.70;;;;;;;;;;6206817;23;20334;-57
2022/04/14 12:48:24;;;;;;;1.52;0.75;;;;;;;;;;6206514;23;20009;-57
2022/04/14 12:50:54;;;;;;;2.35;0.77;;;;;;;;;;6207373;23;20452;-57
2022/04/14 12:53:25;;;;;;;2.15;0.73;;;;;;;;;;6207192;23;20015;-57
2022/04/14 12:55:52;;;;;;;0.52;0.50;;;;;;;;;;6207290;23;20016;-57
2022/04/14 12:58:18;;;;;;;1.00;0.63;;;;;;;;;;6206732;23;20616;-57
2022/04/14 13:00:44;;;;;;;0.77;0.60;;;;;;;;;;6207461;23;20008;-57
2022/04/14 13:03:16;;;;;;;0.93;0.73;;;;;;;;;;6180161;23;20449;-57
2022/04/14 13:05:43;;;;;;;1.52;0.50;;;;;;;;;;6207188;23;20004;-58
2022/04/14 13:08:09;;;;;;;1.20;0.70;;;;;;;;;;6180311;23;20008;-58
2022/04/14 13:10:41;;;;;;;0.60;0.60;;;;;;;;;;6207354;23;20000;-57
2022/04/14 13:13:08;;;;;;;0.50;0.50;;;;;;;;;;6206120;23;20009;-57
2022/04/14 13:15:34;;;;;;;2.28;0.70;;;;;;;;;;6206300;23;20017;-58
2022/04/14 13:18:04;;;;;;;1.10;0.63;;;;;;;;;;6205971;23;20009;-58
2022/04/14 13:20:33;;;;;;;2.13;0.80;;;;;;;;;;6206553;23;20047;-57
2022/04/14 13:22:59;;;;;;;1.08;0.70;;;;;;;;;;6206226;23;20031;-58
2022/04/14 13:25:26;;;;;;;1.23;0.60;;;;;;;;;;6206867;23;19997;-58
2022/04/14 13:27:52;;;;;;;1.33;0.88;;;;;;;;;;6207029;23;20357;-57
2022/04/14 13:30:18;;;;;;;1.77;0.80;;;;;;;;;;6207101;23;20052;-57
2022/04/14 13:32:44;;;;;;;1.98;0.63;;;;;;;;;;6207141;23;20058;-57
2022/04/14 13:35:10;;;;;;;1.60;0.70;;;;;;;;;;6206762;23;20032;-58
2022/04/14 13:37:37;;;;;;;0.93;0.60;;;;;;;;;;6208151;23;20001;-57
2022/04/14 13:40:04;;;;;;;1.50;0.70;;;;;;;;;;6207887;23;20000;-58
2022/04/14 13:42:31;;;;;;;1.38;0.73;;;;;;;;;;6206968;23;20005;-59
2022/04/14 13:44:57;;;;;;;0.60;0.60;;;;;;;;;;6207420;23;19997;-58
2022/04/14 13:47:24;;;;;;;0.50;0.50;;;;;;;;;;6206528;23;20024;-59
2022/04/14 13:49:50;;;;;;;1.13;0.70;;;;;;;;;;6180243;23;20597;-58
2022/04/14 13:52:16;;;;;;;0.65;0.50;;;;;;;;;;6206943;23;20005;-58
2022/04/14 13:54:42;;;;;;;1.67;0.65;;;;;;;;;;6206799;23;20028;-58
2022/04/14 13:57:09;;;;;;;0.47;0.47;;;;;;;;;;6206799;23;20007;-59
2022/04/14 13:59:35;;;;;;;1.13;0.73;;;;;;;;;;6207331;23;20489;-58
2022/04/14 14:02:02;;;;;;;1.00;0.45;;;;;;;;;;6207165;23;20016;-58
2022/04/14 14:04:28;;;;;;;0.50;0.50;;;;;;;;;;6206275;23;21062;-58
2022/04/14 14:06:54;;;;;;;2.30;0.60;;;;;;;;;;6206966;23;20071;-58
2022/04/14 14:09:20;;;;;;;1.60;0.70;;;;;;;;;;6206494;23;20363;-58
2022/04/14 14:11:47;;;;;;;1.77;0.70;;;;;;;;;;6207192;23;20000;-58
2022/04/14 14:14:13;;;;;;;2.17;1.00;;;;;;;;;;6206391;23;20464;-58
2022/04/14 14:16:39;;;;;;;0.98;0.50;;;;;;;;;;6206543;23;20070;-58
2022/04/14 14:19:05;;;;;;;1.42;0.70;;;;;;;;;;6207370;23;20074;-58
2022/04/14 14:21:31;;;;;;;2.35;0.70;;;;;;;;;;6207108;23;20015;-58
2022/04/14 14:23:59;;;;;;;1.77;0.80;;;;;;;;;;6208805;23;20311;-58
2022/04/14 14:26:25;;;;;;;2.78;0.70;;;;;;;;;;6208152;23;20008;-57
2022/04/14 14:28:51;;;;;;;4.00;1.10;;;;;;;;;;6208907;23;20101;-58
2022/04/14 14:31:17;;;;;;;1.20;0.85;;;;;;;;;;6208222;23;20396;-57
2022/04/14 14:33:44;;;;;;;0.75;0.68;;;;;;;;;;6208921;23;20008;-58
2022/04/14 14:36:10;;;;;;;2.95;0.98;;;;;;;;;;6208351;23;20011;-58
2022/04/14 14:38:36;;;;;;;1.17;0.80;;;;;;;;;;6209167;23;20019;-58
2022/04/14 14:41:02;;;;;;;1.88;0.70;;;;;;;;;;6208752;23;20345;-58
2022/04/14 14:43:30;;;;;;;5.32;1.30;;;;;;;;;;6208364;23;20039;-59
2022/04/14 14:45:56;;;;;;;3.35;1.10;;;;;;;;;;6208080;23;19997;-58